Time;durP1;ratioP1;P1;durP2;ratioP2;P2;SDS_P1;SDS_P2;PMS_P1;PMS_P2;Temp;Humidity;BMP_temperature;BMP_pressure;BME280_temperature;BME280_humidity;BME280_pressure;Samples;Min_cycle;Max_cycle;Signal;HPM_P1;HPM_P2
2022/11/10 00:00:04;;;;;;;1.00;1.00;;;8.90;99.90;;;;;;5030251;28;20455;-81
2022/11/10 00:02:30;;;;;;;1.15;1.15;;;8.80;99.90;;;;;;5012528;28;20045;-82
2022/11/10 00:04:57;;;;;;;4.10;3.65;;;8.80;99.90;;;;;;5045102;28;20041;-81
2022/11/10 00:07:25;;;;;;;10.45;8.27;;;8.80;99.90;;;;;;5047553;28;20037;-81
2022/11/10 00:09:51;;;;;;;3.20;2.88;;;8.80;99.90;;;;;;5041387;28;20048;-80
2022/11/10 00:12:18;;;;;;;9.65;8.45;;;8.80;99.90;;;;;;5025111;28;20049;-80
2022/11/10 00:17:28;;;;;;;2.80;2.65;;;8.80;99.90;;;;;;5049813;28;20060;-81
2022/11/10 00:19:53;;;;;;;3.42;2.85;;;8.80;99.90;;;;;;5043499;28;20044;-81
2022/11/10 00:22:19;;;;;;;1.88;1.77;;;8.80;99.90;;;;;;5042878;28;20056;-81
2022/11/10 00:24:45;;;;;;;2.65;2.22;;;8.70;99.90;;;;;;5044277;28;20485;-80
2022/11/10 00:27:13;;;;;;;1.55;1.15;;;8.70;99.90;;;;;;5042097;28;20059;-80
2022/11/10 00:29:40;;;;;;;0.90;0.90;;;8.60;99.90;;;;;;5044763;28;21719;-81
2022/11/10 00:32:06;;;;;;;0.88;0.88;;;8.60;99.90;;;;;;5044000;28;20047;-82
2022/11/10 00:34:31;;;;;;;0.65;0.65;;;8.60;99.90;;;;;;5032052;28;20055;-81
2022/11/10 00:36:57;;;;;;;0.60;0.60;;;8.70;99.90;;;;;;5047334;28;20041;-82
2022/11/10 00:39:23;;;;;;;0.57;0.57;;;8.60;99.90;;;;;;5041999;28;20095;-81
2022/11/10 00:41:48;;;;;;;0.63;0.63;;;8.70;99.90;;;;;;5038911;28;20041;-82
2022/11/10 00:44:14;;;;;;;0.68;0.68;;;8.70;99.90;;;;;;5039365;28;20047;-82
2022/11/10 00:46:40;;;;;;;0.60;0.60;;;8.80;99.90;;;;;;5020358;28;20040;-82
2022/11/10 00:49:05;;;;;;;0.40;0.40;;;8.80;99.90;;;;;;5041348;28;20098;-81
2022/11/10 00:51:31;;;;;;;0.40;0.40;;;8.90;99.90;;;;;;5025618;28;20474;-82
2022/11/10 00:53:57;;;;;;;0.73;0.73;;;8.90;99.90;;;;;;5024028;28;20052;-82
2022/11/10 00:56:24;;;;;;;0.50;0.50;;;9.00;99.90;;;;;;5025672;28;20583;-81
2022/11/10 00:58:49;;;;;;;0.40;0.40;;;9.00;99.90;;;;;;5040694;28;20477;-81
2022/11/10 01:01:17;;;;;;;0.60;0.60;;;9.00;99.90;;;;;;5042203;28;20049;-80
2022/11/10 01:03:42;;;;;;;0.45;0.45;;;9.00;99.90;;;;;;5040289;28;20486;-81
2022/11/10 01:06:11;;;;;;;0.32;0.32;;;9.00;99.90;;;;;;5041480;28;20033;-80
2022/11/10 01:08:38;;;;;;;0.32;0.32;;;9.00;99.90;;;;;;5051762;28;20044;-80
2022/11/10 01:11:06;;;;;;;0.40;0.40;;;9.00;99.90;;;;;;5039373;28;20390;-81
2022/11/10 01:13:32;;;;;;;0.38;0.38;;;9.00;99.90;;;;;;5024362;28;20072;-80
2022/11/10 01:16:11;;;;;;;0.40;0.40;;;9.10;99.90;;;;;;5023393;28;20045;-80
2022/11/10 01:18:37;;;;;;;0.50;0.50;;;9.00;99.90;;;;;;5041213;28;20127;-81
2022/11/10 01:21:03;;;;;;;0.50;0.50;;;9.00;99.90;;;;;;5040441;28;20127;-82
2022/11/10 01:23:32;;;;;;;0.90;0.90;;;8.90;99.90;;;;;;5041063;28;20123;-80
2022/11/10 01:26:00;;;;;;;0.40;0.40;;;8.90;99.90;;;;;;5040112;28;20147;-80
2022/11/10 01:28:26;;;;;;;0.63;0.63;;;8.80;99.90;;;;;;5028018;28;20057;-82
2022/11/10 01:31:06;;;;;;;5.75;0.88;;;8.80;99.90;;;;;;5047688;28;20055;-81
2022/11/10 01:33:32;;;;;;;0.43;0.43;;;8.80;99.90;;;;;;5045665;28;20041;-81
2022/11/10 01:35:59;;;;;;;0.98;0.98;;;8.80;99.90;;;;;;5042822;28;22110;-81
2022/11/10 01:38:33;;;;;;;0.60;0.60;;;8.80;99.90;;;;;;5022347;28;20076;-80
2022/11/10 01:41:00;;;;;;;2.55;1.52;;;8.80;99.90;;;;;;5025605;28;20182;-81
2022/11/10 01:43:27;;;;;;;0.40;0.40;;;8.80;99.90;;;;;;5040940;28;20052;-82
2022/11/10 01:45:53;;;;;;;0.40;0.40;;;8.80;99.90;;;;;;5037616;28;20058;-81
2022/11/10 01:48:49;;;;;;;0.40;0.40;;;8.70;99.90;;;;;;5039901;28;20037;-80
2022/11/10 01:52:03;;;;;;;0.52;0.52;;;8.80;99.90;;;;;;5017716;28;20084;-81
2022/11/10 01:54:33;;;;;;;0.60;0.60;;;8.80;99.90;;;;;;4947704;28;20090;-81
2022/11/10 01:57:04;;;;;;;0.65;0.65;;;8.80;99.90;;;;;;4947870;28;20050;-80
2022/11/10 01:59:35;;;;;;;0.40;0.40;;;8.80;99.90;;;;;;5002650;28;20057;-81
2022/11/10 02:02:26;;;;;;;0.47;0.47;;;8.80;99.90;;;;;;5023945;28;20128;-80
2022/11/10 02:04:52;;;;;;;0.40;0.40;;;8.80;99.90;;;;;;5041423;28;20076;-81
2022/11/10 02:07:20;;;;;;;0.55;0.43;;;8.70;99.90;;;;;;5039468;28;20041;-83
2022/11/10 02:09:45;;;;;;;0.30;0.30;;;8.70;99.90;;;;;;5026157;28;20047;-81
2022/11/10 02:12:12;;;;;;;;;;;8.70;99.90;;;;;;5026036;28;20555;-81
2022/11/10 02:14:38;;;;;;;0.47;0.47;;;8.70;99.90;;;;;;5022163;28;19920;-82
2022/11/10 02:17:03;;;;;;;0.60;0.60;;;8.70;99.90;;;;;;5043293;28;20474;-81
2022/11/10 02:19:29;;;;;;;0.57;0.57;;;8.70;99.90;;;;;;5044693;28;20467;-80
2022/11/10 02:21:55;;;;;;;0.47;0.47;;;8.70;99.90;;;;;;5046570;28;20053;-81
2022/11/10 02:24:21;;;;;;;0.50;0.50;;;8.80;99.90;;;;;;5042001;28;20559;-80
2022/11/10 02:26:51;;;;;;;0.60;0.60;;;8.90;99.90;;;;;;5025200;28;20743;-80
2022/11/10 02:29:17;;;;;;;0.30;0.30;;;8.80;99.90;;;;;;5039571;28;20045;-81
2022/11/10 02:31:43;;;;;;;0.43;0.43;;;8.90;99.90;;;;;;5046841;28;20064;-80
2022/11/10 02:34:09;;;;;;;0.43;0.43;;;8.90;99.90;;;;;;5027395;28;20098;-80
2022/11/10 02:36:35;;;;;;;0.50;0.50;;;8.90;99.90;;;;;;5044115;28;20380;-81
2022/11/10 02:39:02;;;;;;;0.50;0.50;;;8.90;99.90;;;;;;5029938;28;20520;-81
2022/11/10 02:41:33;;;;;;;0.50;0.50;;;8.90;99.90;;;;;;5041955;28;20044;-80
2022/11/10 02:43:59;;;;;;;0.30;0.30;;;9.00;99.90;;;;;;5045709;28;20033;-80
2022/11/10 02:46:25;;;;;;;1.13;1.13;;;8.80;99.90;;;;;;5025633;28;20048;-80
2022/11/10 02:48:51;;;;;;;0.30;0.30;;;8.80;99.90;;;;;;5046016;28;20041;-80
2022/11/10 02:51:17;;;;;;;0.60;0.60;;;8.80;99.90;;;;;;5027916;28;20056;-81
2022/11/10 02:53:42;;;;;;;0.73;0.73;;;8.80;99.90;;;;;;5049988;28;20068;-80
2022/11/10 02:56:14;;;;;;;0.65;0.65;;;8.70;99.90;;;;;;5048113;28;20490;-82
2022/11/10 02:58:40;;;;;;;0.50;0.50;;;8.70;99.90;;;;;;5058334;28;20696;-81
2022/11/10 03:01:06;;;;;;;0.80;0.80;;;8.70;99.90;;;;;;5027178;28;20182;-80
2022/11/10 03:03:32;;;;;;;;;;;8.70;99.90;;;;;;5041998;28;20049;-81
2022/11/10 03:05:57;;;;;;;0.50;0.50;;;8.70;99.90;;;;;;5043169;28;19916;-81
2022/11/10 03:08:23;;;;;;;0.50;0.50;;;8.70;99.90;;;;;;5030838;28;20616;-79
2022/11/10 03:10:53;;;;;;;0.60;0.60;;;8.70;99.90;;;;;;5044501;28;20049;-79
2022/11/10 03:13:18;;;;;;;0.47;0.47;;;8.60;99.90;;;;;;5045345;28;20057;-81
2022/11/10 03:15:46;;;;;;;0.60;0.60;;;8.70;99.90;;;;;;5044026;28;20547;-81
2022/11/10 03:18:12;;;;;;;0.40;0.40;;;8.60;99.90;;;;;;5044593;28;20098;-81
2022/11/10 03:20:40;;;;;;;0.40;0.40;;;8.70;99.90;;;;;;5042091;28;20048;-80
2022/11/10 03:23:06;;;;;;;0.47;0.47;;;8.70;99.90;;;;;;5041621;28;20394;-80
2022/11/10 03:25:33;;;;;;;0.45;0.45;;;8.70;99.90;;;;;;5057809;28;20120;-80
2022/11/10 03:27:58;;;;;;;0.50;0.50;;;8.60;99.90;;;;;;5023125;28;20307;-79
2022/11/10 03:30:24;;;;;;;1.98;1.88;;;8.70;99.90;;;;;;5044564;28;20041;-81
2022/11/10 03:32:50;;;;;;;0.30;0.30;;;8.60;99.90;;;;;;5044978;28;20377;-80
2022/11/10 03:35:16;;;;;;;0.70;0.70;;;8.60;99.90;;;;;;5041782;28;20102;-81
2022/11/10 03:37:41;;;;;;;0.45;0.45;;;8.60;99.90;;;;;;5035874;28;20103;-82
2022/11/10 03:40:08;;;;;;;0.40;0.40;;;8.60;99.90;;;;;;5019570;28;20102;-81
2022/11/10 03:42:33;;;;;;;0.43;0.43;;;8.60;99.90;;;;;;5025041;28;20498;-81
2022/11/10 03:44:59;;;;;;;0.45;0.45;;;8.70;99.90;;;;;;5055155;28;20163;-81
2022/11/10 03:47:25;;;;;;;0.40;0.40;;;8.70;99.90;;;;;;5037793;28;20041;-81
2022/11/10 03:49:52;;;;;;;0.80;0.80;;;8.80;99.90;;;;;;5039667;28;20040;-81
2022/11/10 03:52:18;;;;;;;0.50;0.50;;;8.80;99.90;;;;;;5026091;28;20045;-82
2022/11/10 03:54:43;;;;;;;0.40;0.40;;;8.70;99.90;;;;;;5038046;28;20056;-82
2022/11/10 03:57:09;;;;;;;0.43;0.43;;;8.70;99.90;;;;;;5037686;28;20067;-82
2022/11/10 03:59:35;;;;;;;0.40;0.40;;;8.70;99.90;;;;;;5038197;28;20106;-80
2022/11/10 04:02:01;;;;;;;1.02;1.02;;;8.70;99.90;;;;;;5036991;28;21013;-80
2022/11/10 04:09:56;;;;;;;1.05;1.05;;;8.60;99.90;;;;;;5041152;28;21263;-80
2022/11/10 04:18:19;;;;;;;0.50;0.50;;;8.60;99.90;;;;;;5045599;28;20041;-83
2022/11/10 04:20:45;;;;;;;0.65;0.65;;;8.70;99.90;;;;;;5037411;28;20052;-81
2022/11/10 04:23:25;;;;;;;0.43;0.43;;;8.60;99.90;;;;;;5041590;28;20422;-80
2022/11/10 04:28:48;;;;;;;0.40;0.40;;;8.60;99.90;;;;;;5034945;28;20057;-81
2022/11/10 04:31:15;;;;;;;0.30;0.30;;;8.70;99.90;;;;;;5057069;28;20123;-81
2022/11/10 04:33:41;;;;;;;0.32;0.32;;;8.70;99.90;;;;;;5042125;28;20159;-81
2022/11/10 04:36:10;;;;;;;0.40;0.40;;;8.90;99.90;;;;;;5029533;28;20052;-79
2022/11/10 04:38:36;;;;;;;0.45;0.45;;;8.80;99.90;;;;;;5025669;28;20040;-82
2022/11/10 04:41:02;;;;;;;2.10;1.67;;;8.80;99.90;;;;;;5042652;28;20049;-80
2022/11/10 04:43:28;;;;;;;0.40;0.40;;;8.80;99.90;;;;;;5040180;28;20052;-80
2022/11/10 04:45:55;;;;;;;0.68;0.68;;;8.80;99.90;;;;;;5021625;28;20041;-80
2022/11/10 04:48:21;;;;;;;0.50;0.50;;;8.80;99.90;;;;;;5044059;28;20041;-81
2022/11/10 04:50:48;;;;;;;0.60;0.60;;;8.90;99.90;;;;;;5008708;28;20506;-81
2022/11/10 04:53:14;;;;;;;1.70;1.65;;;8.90;99.90;;;;;;5039931;28;20052;-81
2022/11/10 04:55:43;;;;;;;0.63;0.63;;;9.00;99.90;;;;;;5039280;28;20056;-80
2022/11/10 04:58:09;;;;;;;1.25;1.25;;;9.00;99.90;;;;;;5005896;28;20186;-81
2022/11/10 05:00:35;;;;;;;;;;;9.00;99.90;;;;;;4995370;28;20532;-81
2022/11/10 05:03:02;;;;;;;0.40;0.40;;;9.10;99.90;;;;;;5036291;28;19924;-80
2022/11/10 05:05:31;;;;;;;0.52;0.52;;;9.00;99.90;;;;;;5037794;28;20525;-80
2022/11/10 05:07:57;;;;;;;0.50;0.50;;;9.00;99.90;;;;;;5021858;28;20041;-81
2022/11/10 05:10:24;;;;;;;0.50;0.50;;;9.10;99.90;;;;;;5019134;28;20475;-81
2022/11/10 05:12:57;;;;;;;0.75;0.75;;;9.10;99.90;;;;;;5033903;28;20544;-81
2022/11/10 05:15:24;;;;;;;0.30;0.30;;;9.20;99.90;;;;;;5035728;28;20049;-81
2022/11/10 05:17:51;;;;;;;0.70;0.70;;;9.20;99.90;;;;;;5037671;28;20053;-81
2022/11/10 05:20:18;;;;;;;0.95;0.95;;;9.20;99.90;;;;;;5043145;28;20041;-81
2022/11/10 05:23:36;;;;;;;0.50;0.50;;;9.20;99.90;;;;;;5027897;28;20045;-80
2022/11/10 05:25:32;;;;;;;1.02;1.02;;;9.20;99.90;;;;;;5044705;28;20192;-79
2022/11/10 05:27:57;;;;;;;1.05;1.05;;;9.20;99.90;;;;;;5044093;28;20091;-81
2022/11/10 05:30:23;;;;;;;0.60;0.60;;;9.20;99.90;;;;;;5041272;28;20067;-81
2022/11/10 05:32:48;;;;;;;0.50;0.50;;;9.30;99.90;;;;;;5041145;28;20053;-81
2022/11/10 05:35:15;;;;;;;0.60;0.60;;;9.30;99.90;;;;;;5020232;28;20059;-81
2022/11/10 05:37:40;;;;;;;;;;;9.30;99.90;;;;;;5023230;28;20052;-82
2022/11/10 05:40:07;;;;;;;0.38;0.38;;;9.30;99.90;;;;;;5035107;28;19921;-82
2022/11/10 05:42:33;;;;;;;0.82;0.82;;;9.30;99.90;;;;;;5042333;28;20432;-81
2022/11/10 05:44:58;;;;;;;0.45;0.45;;;9.30;99.90;;;;;;5057370;28;20033;-82
2022/11/10 05:47:27;;;;;;;0.68;0.68;;;9.20;99.90;;;;;;5041498;28;20709;-81
2022/11/10 05:49:52;;;;;;;0.50;0.50;;;9.20;99.90;;;;;;5039384;28;20037;-81
2022/11/10 05:52:19;;;;;;;0.50;0.50;;;9.20;99.90;;;;;;5043194;28;20049;-81
2022/11/10 05:54:44;;;;;;;0.52;0.52;;;9.20;99.90;;;;;;5039932;28;20049;-80
2022/11/10 05:57:10;;;;;;;0.50;0.50;;;9.30;99.90;;;;;;5021035;28;20047;-81
2022/11/10 05:59:36;;;;;;;0.52;0.52;;;9.30;99.90;;;;;;5041889;28;20033;-81
2022/11/10 06:02:01;;;;;;;0.50;0.50;;;9.30;99.90;;;;;;5041561;28;20041;-81
2022/11/10 06:04:27;;;;;;;0.50;0.50;;;9.30;99.90;;;;;;5025249;28;20041;-81
2022/11/10 06:06:52;;;;;;;0.70;0.70;;;9.30;99.90;;;;;;5018897;28;20041;-80
2022/11/10 06:09:18;;;;;;;0.70;0.70;;;9.80;99.90;;;;;;5040550;28;20048;-81
2022/11/10 06:11:44;;;;;;;0.60;0.60;;;9.30;99.90;;;;;;5043394;28;20471;-81
2022/11/10 06:14:10;;;;;;;0.50;0.50;;;9.30;99.90;;;;;;5046738;28;20442;-81
2022/11/10 06:16:35;;;;;;;0.40;0.40;;;9.30;99.90;;;;;;5028609;28;20087;-81
2022/11/10 06:19:01;;;;;;;0.40;0.40;;;9.30;99.90;;;;;;5043851;28;20301;-81
2022/11/10 06:21:27;;;;;;;0.50;0.50;;;9.30;99.90;;;;;;5032150;28;20045;-82
2022/11/10 06:23:52;;;;;;;0.65;0.65;;;9.20;99.90;;;;;;5024719;28;20033;-81
2022/11/10 06:26:18;;;;;;;0.50;0.50;;;9.30;99.90;;;;;;5021806;28;20068;-80
2022/11/10 06:28:47;;;;;;;0.85;0.85;;;9.30;99.90;;;;;;5043051;28;20037;-81
2022/11/10 06:31:12;;;;;;;0.55;0.55;;;9.30;99.90;;;;;;5045131;28;20037;-81
2022/11/10 06:33:41;;;;;;;0.40;0.40;;;9.30;99.90;;;;;;5004778;28;20060;-81
2022/11/10 06:36:08;;;;;;;0.60;0.60;;;9.40;99.90;;;;;;5041181;28;20049;-81
2022/11/10 06:38:34;;;;;;;0.40;0.40;;;9.30;99.90;;;;;;5042094;28;20051;-81
2022/11/10 06:41:00;;;;;;;0.43;0.43;;;9.40;99.90;;;;;;5043545;28;20045;-82
2022/11/10 06:43:26;;;;;;;0.47;0.47;;;9.40;99.90;;;;;;5039670;28;20142;-82
2022/11/10 06:45:51;;;;;;;2.85;0.63;;;9.40;99.90;;;;;;5042026;28;20076;-81
2022/11/10 06:48:18;;;;;;;0.93;0.93;;;9.50;99.90;;;;;;5047958;28;20208;-80
2022/11/10 06:50:45;;;;;;;0.65;0.65;;;9.50;99.90;;;;;;5047850;28;20049;-81
2022/11/10 06:53:12;;;;;;;0.52;0.52;;;9.60;99.90;;;;;;5044596;28;20319;-82
2022/11/10 06:55:38;;;;;;;0.40;0.40;;;9.60;99.90;;;;;;5008213;28;20180;-81
2022/11/10 06:58:04;;;;;;;;;;;9.60;99.90;;;;;;5048542;28;20138;-81
2022/11/10 07:00:30;;;;;;;0.32;0.32;;;9.60;99.90;;;;;;5046812;28;19954;-80
2022/11/10 07:03:06;;;;;;;0.50;0.50;;;9.60;99.90;;;;;;5046739;28;20494;-81
2022/11/10 07:05:33;;;;;;;;;;;9.60;99.90;;;;;;5046176;28;20048;-80
2022/11/10 07:08:14;;;;;;;0.57;0.57;;;9.70;99.90;;;;;;5044105;28;19921;-80
2022/11/10 07:10:50;;;;;;;0.60;0.60;;;9.70;99.90;;;;;;5040782;28;20029;-81
2022/11/10 07:13:18;;;;;;;0.40;0.40;;;9.80;99.90;;;;;;5044226;28;20041;-82
2022/11/10 07:15:43;;;;;;;0.70;0.70;;;9.80;99.90;;;;;;5042789;28;20120;-82
2022/11/10 07:18:09;;;;;;;2.85;0.85;;;9.80;99.90;;;;;;5043534;28;20056;-81
2022/11/10 07:20:35;;;;;;;1.05;1.05;;;9.80;99.90;;;;;;5044433;28;20463;-81
2022/11/10 07:23:03;;;;;;;0.30;0.30;;;9.80;99.90;;;;;;5044512;28;20119;-81
2022/11/10 07:25:34;;;;;;;0.45;0.45;;;9.90;99.90;;;;;;5043921;28;20498;-81
2022/11/10 07:28:01;;;;;;;0.40;0.40;;;9.90;99.90;;;;;;5042538;28;20045;-81
2022/11/10 07:30:28;;;;;;;0.50;0.50;;;9.90;99.90;;;;;;5059779;28;20033;-81
2022/11/10 07:33:06;;;;;;;0.88;0.50;;;9.90;99.90;;;;;;5044300;28;20848;-81
2022/11/10 07:35:33;;;;;;;0.30;0.30;;;9.90;99.90;;;;;;5044431;28;20036;-81
2022/11/10 07:38:06;;;;;;;0.50;0.50;;;9.80;99.90;;;;;;5043415;28;20047;-81
2022/11/10 07:40:38;;;;;;;0.45;0.45;;;9.90;99.90;;;;;;5028706;28;20051;-80
2022/11/10 07:43:04;;;;;;;0.40;0.40;;;9.80;99.90;;;;;;5026928;28;20565;-81
2022/11/10 07:45:30;;;;;;;;;;;9.80;99.90;;;;;;5046243;28;20418;-81
2022/11/10 07:48:05;;;;;;;0.40;0.40;;;9.70;99.90;;;;;;5046620;28;20015;-81
2022/11/10 07:50:32;;;;;;;0.90;0.90;;;9.70;99.90;;;;;;5060900;28;20037;-82
2022/11/10 07:53:06;;;;;;;0.47;0.47;;;9.70;99.90;;;;;;5045588;28;20044;-82
2022/11/10 07:55:33;;;;;;;0.40;0.40;;;9.70;99.90;;;;;;5046291;28;20064;-82
2022/11/10 07:57:59;;;;;;;0.40;0.40;;;9.60;99.90;;;;;;5042511;28;20052;-81
2022/11/10 08:00:27;;;;;;;0.55;0.55;;;9.70;99.90;;;;;;5046008;28;20041;-80
2022/11/10 08:02:52;;;;;;;0.30;0.30;;;9.80;99.90;;;;;;5043530;28;20386;-81
2022/11/10 08:05:21;;;;;;;0.32;0.32;;;9.80;99.90;;;;;;5045418;28;20037;-81
2022/11/10 08:07:47;;;;;;;3.83;1.17;;;9.80;99.90;;;;;;5043419;28;20045;-80
2022/11/10 08:10:12;;;;;;;0.45;0.45;;;9.80;99.90;;;;;;5043030;28;20104;-81
2022/11/10 08:12:38;;;;;;;0.35;0.35;;;9.80;99.90;;;;;;5045920;28;20044;-82
2022/11/10 08:15:04;;;;;;;0.63;0.63;;;9.80;99.90;;;;;;5052653;28;20048;-81
2022/11/10 08:17:29;;;;;;;0.57;0.57;;;9.80;99.90;;;;;;5044976;28;20060;-81
2022/11/10 08:19:55;;;;;;;0.40;0.40;;;9.90;99.90;;;;;;5026138;28;20048;-81
2022/11/10 08:22:21;;;;;;;0.40;0.40;;;9.90;99.90;;;;;;5043766;28;20477;-81
2022/11/10 08:24:52;;;;;;;0.40;0.40;;;10.00;99.90;;;;;;5043595;28;20052;-81
2022/11/10 08:27:19;;;;;;;0.40;0.40;;;10.00;99.90;;;;;;5024875;28;20040;-82
2022/11/10 08:29:45;;;;;;;0.40;0.40;;;10.20;99.90;;;;;;5041835;28;20041;-81
2022/11/10 08:32:10;;;;;;;0.30;0.30;;;10.20;99.90;;;;;;5043616;28;21535;-81
2022/11/10 08:34:36;;;;;;;0.90;0.90;;;10.30;99.90;;;;;;5043820;28;20040;-81
2022/11/10 08:37:02;;;;;;;0.63;0.63;;;10.40;99.90;;;;;;5045338;28;20056;-81
2022/11/10 08:39:27;;;;;;;0.52;0.52;;;10.50;99.90;;;;;;5042920;28;20132;-82
2022/11/10 08:41:53;;;;;;;0.30;0.30;;;10.50;99.90;;;;;;5041831;28;20131;-81
2022/11/10 08:44:19;;;;;;;0.35;0.35;;;10.50;99.90;;;;;;5044608;28;20402;-82
2022/11/10 08:46:45;;;;;;;0.30;0.30;;;10.60;99.90;;;;;;5045100;28;20044;-81
2022/11/10 08:49:11;;;;;;;0.82;0.82;;;10.60;99.90;;;;;;5026379;28;20394;-81
2022/11/10 08:51:37;;;;;;;1.27;1.10;;;10.70;99.90;;;;;;5045072;28;20052;-82
2022/11/10 08:54:02;;;;;;;0.68;0.68;;;10.70;99.90;;;;;;5024994;28;20051;-81
2022/11/10 08:56:29;;;;;;;0.70;0.70;;;10.80;99.90;;;;;;5041302;28;20069;-82
2022/11/10 08:58:54;;;;;;;0.35;0.35;;;10.80;99.90;;;;;;5040712;28;20053;-82
2022/11/10 09:01:20;;;;;;;0.77;0.77;;;10.90;99.90;;;;;;5010679;28;20048;-82
2022/11/10 09:03:46;;;;;;;0.40;0.40;;;11.00;99.90;;;;;;5030053;28;20044;-82
2022/11/10 09:06:12;;;;;;;1.55;1.45;;;11.10;99.90;;;;;;5026529;28;20073;-82
2022/11/10 09:08:37;;;;;;;1.20;1.20;;;11.20;99.90;;;;;;5020669;28;20045;-82
2022/11/10 09:11:03;;;;;;;0.43;0.40;;;11.30;99.90;;;;;;5023730;28;20045;-81
2022/11/10 09:13:29;;;;;;;0.45;0.45;;;11.40;99.90;;;;;;5037760;28;20053;-82
2022/11/10 09:15:59;;;;;;;0.47;0.47;;;11.40;99.90;;;;;;5040313;28;20067;-82
2022/11/10 09:18:26;;;;;;;0.40;0.40;;;11.50;99.90;;;;;;5038027;28;20091;-81
2022/11/10 09:20:52;;;;;;;0.57;0.57;;;11.50;99.90;;;;;;5040696;28;20057;-80
2022/11/10 09:23:19;;;;;;;8.35;3.45;;;11.60;99.90;;;;;;5039386;28;20592;-82
2022/11/10 09:25:50;;;;;;;0.30;0.30;;;11.70;99.90;;;;;;5045198;28;20494;-81
2022/11/10 09:28:17;;;;;;;0.30;0.30;;;11.80;99.90;;;;;;5046821;28;20163;-82
2022/11/10 09:30:46;;;;;;;0.82;0.82;;;11.80;99.90;;;;;;5049603;28;20112;-81
2022/11/10 09:33:12;;;;;;;0.55;0.55;;;11.90;99.90;;;;;;5028690;28;20103;-81
2022/11/10 09:35:38;;;;;;;0.30;0.30;;;12.10;99.90;;;;;;5044074;28;20047;-81
2022/11/10 09:38:03;;;;;;;0.63;0.63;;;12.10;99.90;;;;;;5036298;28;20049;-82
2022/11/10 09:40:43;;;;;;;0.38;0.38;;;12.10;99.90;;;;;;5044894;28;20051;-82
2022/11/10 09:43:18;;;;;;;0.85;0.82;;;12.10;99.90;;;;;;5041708;28;20522;-82
2022/11/10 09:45:47;;;;;;;0.40;0.40;;;12.10;99.90;;;;;;5042693;28;20041;-82
2022/11/10 09:48:18;;;;;;;0.85;0.60;;;12.10;99.90;;;;;;5042750;28;20464;-82
2022/11/10 09:50:51;;;;;;;0.47;0.47;;;12.00;99.90;;;;;;5048743;28;21172;-81
2022/11/10 09:53:40;;;;;;;0.80;0.80;;;12.10;99.90;;;;;;5041664;28;20033;-82
2022/11/10 09:56:08;;;;;;;0.30;0.30;;;12.10;99.90;;;;;;5026807;28;20494;-82
2022/11/10 09:58:42;;;;;;;0.50;0.50;;;12.10;99.90;;;;;;5042042;28;20046;-82
2022/11/10 10:01:22;;;;;;;1.60;1.25;;;12.20;99.90;;;;;;5043152;28;20382;-82
2022/11/10 10:03:59;;;;;;;0.38;0.38;;;12.20;99.90;;;;;;5062343;28;20466;-82
2022/11/10 10:06:25;;;;;;;1.17;1.17;;;12.30;99.90;;;;;;5043923;28;20051;-83
2022/11/10 10:08:59;;;;;;;;;;;12.30;99.90;;;;;;5046435;28;20466;-81
2022/11/10 10:11:33;;;;;;;1.13;1.08;;;12.20;99.90;;;;;;5044496;28;19970;-82
2022/11/10 10:14:08;;;;;;;1.25;1.15;;;12.20;99.90;;;;;;5034189;28;20087;-81
2022/11/10 10:16:59;;;;;;;0.57;0.57;;;12.20;99.90;;;;;;5049842;28;20095;-81
2022/11/10 10:19:24;;;;;;;1.25;1.17;;;12.30;99.90;;;;;;5027840;28;20150;-82
2022/11/10 10:22:12;;;;;;;0.50;0.50;;;12.40;99.90;;;;;;5046357;28;20129;-81
2022/11/10 10:24:38;;;;;;;0.80;0.80;;;12.50;99.90;;;;;;5041391;28;20044;-81
2022/11/10 10:27:05;;;;;;;;;;;12.50;99.90;;;;;;5027171;28;20037;-83
2022/11/10 10:29:42;;;;;;;1.67;1.23;;;12.50;99.90;;;;;;5046296;28;19917;-82
2022/11/10 10:32:10;;;;;;;;;;;12.50;99.90;;;;;;5047235;28;20141;-82
2022/11/10 10:34:36;;;;;;;0.25;0.25;;;12.50;99.90;;;;;;5047023;28;19932;-80
2022/11/10 10:37:01;;;;;;;2.30;1.38;;;12.50;99.90;;;;;;5033950;28;20037;-82
2022/11/10 10:39:42;;;;;;;0.50;0.50;;;12.50;99.90;;;;;;5052259;28;20048;-82
2022/11/10 10:42:35;;;;;;;0.60;0.60;;;12.50;99.90;;;;;;5048159;28;20446;-82
2022/11/10 10:45:20;;;;;;;0.52;0.52;;;12.60;99.90;;;;;;5045983;28;20128;-82
2022/11/10 10:47:48;;;;;;;0.60;0.60;;;12.60;99.90;;;;;;5044872;28;20052;-81
2022/11/10 10:50:26;;;;;;;2.35;1.48;;;12.50;99.90;;;;;;5043079;28;20033;-81
2022/11/10 10:53:06;;;;;;;0.60;0.60;;;12.50;99.90;;;;;;5041554;28;20049;-84
2022/11/10 10:55:33;;;;;;;0.50;0.50;;;12.60;99.90;;;;;;5041631;28;20200;-81
2022/11/10 10:58:23;;;;;;;0.40;0.40;;;12.70;99.90;;;;;;5040638;28;20049;-83
2022/11/10 11:00:56;;;;;;;1.20;1.10;;;12.80;99.90;;;;;;5044947;28;20567;-81
2022/11/10 11:03:28;;;;;;;0.75;0.75;;;12.80;99.90;;;;;;5046007;28;20079;-82
2022/11/10 11:06:21;;;;;;;0.50;0.50;;;12.80;99.90;;;;;;5046625;28;20047;-82
2022/11/10 11:09:13;;;;;;;0.47;0.47;;;12.90;99.90;;;;;;5056648;28;20490;-82
2022/11/10 11:11:41;;;;;;;0.65;0.65;;;12.90;99.90;;;;;;5051409;28;20079;-82
2022/11/10 11:14:27;;;;;;;0.85;0.85;;;12.90;99.90;;;;;;5044870;28;20049;-82
2022/11/10 11:16:53;;;;;;;1.00;0.95;;;13.00;99.90;;;;;;5041648;28;20038;-82
2022/11/10 11:19:21;;;;;;;0.52;0.52;;;13.00;99.90;;;;;;5037162;28;20392;-83
2022/11/10 11:22:04;;;;;;;0.75;0.75;;;13.00;99.90;;;;;;5062231;28;20318;-82
2022/11/10 11:24:48;;;;;;;0.70;0.70;;;13.00;99.90;;;;;;5053811;28;20084;-82
2022/11/10 11:27:28;;;;;;;0.65;0.60;;;13.00;99.90;;;;;;5038465;28;20033;-82
2022/11/10 11:30:02;;;;;;;0.55;0.55;;;13.10;99.90;;;;;;5035785;28;20037;-81
2022/11/10 11:32:57;;;;;;;0.73;0.68;;;13.10;99.90;;;;;;5037170;28;20055;-82
2022/11/10 11:35:35;;;;;;;0.40;0.40;;;13.20;99.90;;;;;;5018444;28;20048;-81
2022/11/10 11:38:09;;;;;;;0.40;0.40;;;13.30;99.90;;;;;;5033089;28;20483;-81
2022/11/10 11:41:10;;;;;;;0.50;0.50;;;13.30;99.90;;;;;;5036224;28;20056;-82
2022/11/10 11:43:58;;;;;;;0.60;0.60;;;13.30;99.90;;;;;;5003714;28;20053;-82
2022/11/10 11:46:46;;;;;;;0.38;0.30;;;13.30;99.90;;;;;;5040434;28;20045;-82
2022/11/10 11:49:40;;;;;;;0.70;0.70;;;13.20;99.90;;;;;;5042705;28;20039;-82
2022/11/10 11:52:24;;;;;;;0.40;0.40;;;13.20;99.90;;;;;;5042835;28;20163;-82
2022/11/10 11:55:24;;;;;;;1.10;1.00;;;13.20;99.90;;;;;;5045519;28;20052;-81
2022/11/10 11:58:14;;;;;;;0.28;0.28;;;13.30;99.90;;;;;;5041932;28;20063;-81
2022/11/10 12:01:05;;;;;;;0.90;0.90;;;13.40;99.90;;;;;;5038531;28;20052;-82
2022/11/10 12:03:52;;;;;;;3.78;2.65;;;13.40;99.90;;;;;;5026056;28;20508;-81
2022/11/10 12:06:34;;;;;;;;;;;13.50;99.90;;;;;;5034564;28;20109;-82
2022/11/10 12:09:09;;;;;;;1.15;1.15;;;13.50;99.90;;;;;;5037155;28;19921;-82
2022/11/10 12:11:56;;;;;;;0.55;0.45;;;13.40;99.90;;;;;;5041184;28;20781;-82
2022/11/10 12:14:33;;;;;;;;;;;13.40;99.90;;;;;;5041402;28;20037;-82
2022/11/10 12:17:05;;;;;;;0.30;0.30;;;13.40;99.90;;;;;;5038757;28;19925;-82
2022/11/10 12:20:12;;;;;;;0.70;0.70;;;13.50;99.90;;;;;;5041181;28;20090;-82
2022/11/10 12:23:07;;;;;;;0.30;0.30;;;13.50;99.90;;;;;;5038792;28;20040;-82
2022/11/10 12:26:14;;;;;;;0.45;0.45;;;13.50;99.90;;;;;;5015115;28;20033;-83
2022/11/10 12:28:53;;;;;;;5.93;1.55;;;13.50;99.90;;;;;;5038102;28;20057;-82
2022/11/10 12:31:23;;;;;;;1.35;1.27;;;13.50;99.90;;;;;;5039977;28;20122;-82
2022/11/10 12:34:09;;;;;;;0.60;0.60;;;13.50;99.90;;;;;;5026180;28;20569;-82
2022/11/10 12:36:36;;;;;;;1.27;1.27;;;13.50;99.90;;;;;;5033522;28;20045;-81
2022/11/10 12:39:22;;;;;;;1.42;1.08;;;13.50;99.90;;;;;;5037131;28;20084;-82
2022/11/10 12:41:57;;;;;;;0.40;0.40;;;13.60;99.90;;;;;;5039659;28;20052;-83
2022/11/10 12:44:27;;;;;;;0.40;0.40;;;13.60;99.90;;;;;;5035342;28;20049;-82
2022/11/10 12:46:57;;;;;;;0.45;0.43;;;13.60;99.90;;;;;;5038044;28;20036;-81
2022/11/10 12:49:35;;;;;;;1.02;1.02;;;13.60;99.90;;;;;;5042693;28;20045;-81
2022/11/10 12:52:09;;;;;;;1.23;1.13;;;13.60;99.90;;;;;;5039754;28;20072;-81
2022/11/10 12:54:37;;;;;;;0.40;0.40;;;13.60;99.90;;;;;;5043764;28;20386;-81
2022/11/10 12:57:25;;;;;;;0.82;0.82;;;13.70;99.90;;;;;;5041606;28;20091;-81
2022/11/10 13:00:00;;;;;;;1.95;1.52;;;13.70;99.90;;;;;;5048896;28;20459;-81
2022/11/10 13:02:29;;;;;;;0.30;0.30;;;13.60;99.90;;;;;;5048683;28;20101;-80
2022/11/10 13:05:13;;;;;;;0.73;0.73;;;13.60;99.90;;;;;;5043426;28;20048;-82
2022/11/10 13:07:49;;;;;;;1.45;0.82;;;13.60;99.90;;;;;;5045185;28;20041;-82
2022/11/10 13:10:26;;;;;;;0.57;0.57;;;13.60;99.90;;;;;;5041082;28;20401;-82
2022/11/10 13:12:59;;;;;;;0.40;0.40;;;13.70;99.90;;;;;;5049529;28;20123;-80
2022/11/10 13:15:37;;;;;;;0.40;0.40;;;13.60;99.90;;;;;;5041464;28;20525;-82
2022/11/10 13:18:05;;;;;;;2.13;1.15;;;13.60;99.90;;;;;;5025379;28;20045;-81
2022/11/10 13:20:50;;;;;;;0.45;0.45;;;13.60;99.90;;;;;;5032298;28;20103;-82
2022/11/10 13:23:24;;;;;;;1.55;1.33;;;13.60;99.90;;;;;;5045501;28;20096;-82
2022/11/10 13:25:54;;;;;;;0.75;0.75;;;13.60;99.90;;;;;;5040947;28;20055;-82
2022/11/10 13:28:44;;;;;;;0.28;0.28;;;13.60;99.90;;;;;;5041694;28;20046;-81